createdAt,value
2023-05-13T00:00:09.141Z,0.63
2023-05-13T00:01:09.216Z,0.69
2023-05-13T00:02:09.232Z,0.76
2023-05-13T00:03:09.433Z,0.60
2023-05-13T00:04:09.368Z,0.78
2023-05-13T00:05:09.398Z,0.78
2023-05-13T00:06:09.438Z,0.78
2023-05-13T00:07:09.488Z,0.62
2023-05-13T00:08:09.555Z,0.94
2023-05-13T00:09:09.591Z,0.93
2023-05-13T00:10:09.648Z,0.72
2023-05-13T00:11:09.668Z,0.80
2023-05-13T00:12:09.719Z,0.72
2023-05-13T00:13:09.827Z,0.74
2023-05-13T00:14:09.807Z,0.61
2023-05-13T00:15:09.865Z,0.92
2023-05-13T00:16:09.923Z,0.86
2023-05-13T00:17:09.954Z,0.77
2023-05-13T00:18:09.968Z,0.82
2023-05-13T00:19:10.043Z,0.62
2023-05-13T00:20:10.033Z,0.87
2023-05-13T00:21:10.092Z,0.84
2023-05-13T00:22:10.163Z,0.82
2023-05-13T00:23:10.266Z,0.65
2023-05-13T00:24:10.263Z,0.78
2023-05-13T00:25:10.297Z,0.58
2023-05-13T00:26:10.350Z,0.65
2023-05-13T00:27:10.404Z,0.70
2023-05-13T00:28:10.477Z,0.77
2023-05-13T00:29:10.531Z,0.55
2023-05-13T00:30:10.577Z,0.76
2023-05-13T00:31:10.612Z,0.56
2023-05-13T00:32:10.652Z,0.77
2023-05-13T00:33:10.718Z,0.45
2023-05-13T00:34:10.768Z,0.68
2023-05-13T00:35:10.804Z,0.61
2023-05-13T00:36:10.874Z,0.51
2023-05-13T00:37:10.942Z,0.62
2023-05-13T00:38:10.973Z,0.67
2023-05-13T00:39:11.000Z,0.60
2023-05-13T00:40:11.054Z,0.79
2023-05-13T00:41:11.118Z,0.66
2023-05-13T00:42:11.212Z,0.64
2023-05-13T00:43:11.261Z,0.67
2023-05-13T00:44:13.248Z,0.65
2023-05-13T00:45:11.292Z,0.53
2023-05-13T00:46:11.282Z,0.52
2023-05-13T00:47:11.320Z,0.59
2023-05-13T00:48:11.263Z,0.61
2023-05-13T00:49:11.283Z,0.59
2023-05-13T00:50:11.264Z,0.66
2023-05-13T00:51:11.252Z,0.75
2023-05-13T00:52:11.223Z,0.52
2023-05-13T00:53:11.245Z,0.62
2023-05-13T00:54:11.257Z,0.69
2023-05-13T00:55:11.230Z,0.78
2023-05-13T00:56:11.222Z,0.75
2023-05-13T00:57:11.205Z,0.63
2023-05-13T00:58:11.198Z,0.69
2023-05-13T00:59:11.174Z,0.50
2023-05-13T01:00:11.173Z,0.75
2023-05-13T01:01:11.206Z,0.69
2023-05-13T01:02:11.210Z,0.73
2023-05-13T01:03:11.360Z,0.43
2023-05-13T01:04:11.181Z,0.58
2023-05-13T01:05:11.136Z,0.46
2023-05-13T01:06:11.138Z,0.63
2023-05-13T01:07:11.136Z,0.44
2023-05-13T01:08:11.138Z,0.71
2023-05-13T01:09:11.118Z,0.64
2023-05-13T01:10:11.133Z,0.47
2023-05-13T01:11:11.092Z,0.69
2023-05-13T01:12:11.084Z,0.52
2023-05-13T01:13:11.083Z,0.78
2023-05-13T01:14:11.129Z,0.58
2023-05-13T01:15:11.087Z,0.91
2023-05-13T01:16:11.140Z,0.54
2023-05-13T01:17:11.089Z,0.65
2023-05-13T01:18:11.105Z,0.61
2023-05-13T01:19:11.097Z,0.78
2023-05-13T01:20:11.028Z,0.75
2023-05-13T01:21:11.035Z,0.65
2023-05-13T01:22:11.022Z,0.68
2023-05-13T01:23:11.097Z,0.53
2023-05-13T01:24:11.236Z,0.51
2023-05-13T01:25:11.212Z,0.77
2023-05-13T01:26:11.245Z,0.70
2023-05-13T01:27:11.316Z,0.62
2023-05-13T01:28:11.375Z,0.73
2023-05-13T01:29:11.432Z,0.91
2023-05-13T01:30:11.508Z,0.62
2023-05-13T01:31:11.607Z,0.73
2023-05-13T01:32:11.630Z,0.48
2023-05-13T01:33:11.727Z,0.77
2023-05-13T01:34:11.724Z,0.88
2023-05-13T01:35:11.858Z,0.36
2023-05-13T01:36:11.848Z,0.69
2023-05-13T01:37:11.887Z,0.58
2023-05-13T01:38:11.924Z,0.35
2023-05-13T01:39:11.973Z,0.79
2023-05-13T01:40:24.170Z,0.60
2023-05-13T01:41:13.030Z,0.61
2023-05-13T01:42:12.008Z,0.58
2023-05-13T01:43:12.003Z,0.72
2023-05-13T01:44:12.014Z,0.57
2023-05-13T01:45:11.996Z,0.51
2023-05-13T01:46:12.091Z,0.40
2023-05-13T01:47:11.978Z,0.61
2023-05-13T01:48:11.985Z,0.56
2023-05-13T01:49:11.976Z,0.33
2023-05-13T01:50:12.003Z,0.39
2023-05-13T01:51:12.068Z,0.49
2023-05-13T01:52:12.116Z,0.68
2023-05-13T01:53:12.196Z,0.49
2023-05-13T01:54:12.261Z,0.82
2023-05-13T01:55:12.294Z,0.44
2023-05-13T01:56:12.427Z,0.61
2023-05-13T01:57:12.500Z,0.52
2023-05-13T01:58:12.531Z,0.32
2023-05-13T01:59:12.586Z,0.62
2023-05-13T02:00:12.662Z,0.62
2023-05-13T02:01:12.724Z,0.45
2023-05-13T02:02:12.804Z,0.53
2023-05-13T02:03:12.905Z,0.44
2023-05-13T02:04:12.925Z,0.40
2023-05-13T02:05:12.966Z,0.68
2023-05-13T02:06:13.032Z,0.57
2023-05-13T02:07:13.084Z,0.57
2023-05-13T02:08:13.148Z,0.83
2023-05-13T02:09:13.208Z,0.65
2023-05-13T02:10:13.258Z,0.44
2023-05-13T02:11:13.320Z,0.58
2023-05-13T02:12:13.373Z,0.60
2023-05-13T02:13:13.426Z,0.52
2023-05-13T02:14:13.472Z,0.41
2023-05-13T02:15:13.521Z,0.59
2023-05-13T02:16:13.633Z,0.62
2023-05-13T02:17:13.638Z,0.52
2023-05-13T02:18:13.790Z,0.68
2023-05-13T02:19:13.794Z,0.54
2023-05-13T02:20:13.799Z,0.68
2023-05-13T02:21:13.893Z,0.64
2023-05-13T02:22:13.927Z,0.60
2023-05-13T02:23:13.994Z,0.85
2023-05-13T02:24:14.072Z,0.82
2023-05-13T02:25:14.117Z,0.52
2023-05-13T02:26:14.177Z,0.72
2023-05-13T02:27:14.235Z,0.54
2023-05-13T02:28:14.347Z,0.58
2023-05-13T02:29:14.333Z,0.63
2023-05-13T02:30:14.406Z,0.82
2023-05-13T02:31:14.464Z,0.61
2023-05-13T02:32:14.679Z,0.58
2023-05-13T02:33:14.614Z,0.53
2023-05-13T02:34:14.646Z,0.64
2023-05-13T02:35:14.694Z,0.46
2023-05-13T02:36:14.757Z,0.51
2023-05-13T02:37:14.837Z,0.45
2023-05-13T02:38:14.917Z,0.36
2023-05-13T02:39:14.962Z,0.82
2023-05-13T02:40:15.030Z,0.55
2023-05-13T02:41:15.108Z,0.70
2023-05-13T02:42:15.158Z,0.54
2023-05-13T02:43:15.222Z,0.38
2023-05-13T02:44:15.279Z,0.59
2023-05-13T02:45:15.308Z,0.52
2023-05-13T02:46:15.420Z,0.61
2023-05-13T02:47:15.405Z,0.49
2023-05-13T02:48:15.457Z,0.47
2023-05-13T02:49:15.488Z,0.78
2023-05-13T02:50:15.554Z,0.77
2023-05-13T02:51:15.591Z,0.66
2023-05-13T02:52:15.622Z,0.70
2023-05-13T02:53:15.683Z,0.60
2023-05-13T02:54:15.746Z,0.50
2023-05-13T02:55:15.821Z,0.68
2023-05-13T02:56:15.853Z,0.58
2023-05-13T02:57:15.911Z,0.69
2023-05-13T02:58:15.963Z,0.63
2023-05-13T02:59:16.015Z,1.01
2023-05-13T03:00:16.092Z,0.66
2023-05-13T03:01:16.152Z,0.59
2023-05-13T03:02:16.260Z,0.82
2023-05-13T03:03:16.308Z,1.13
2023-05-13T03:04:16.316Z,0.71
2023-05-13T03:05:16.370Z,0.68
2023-05-13T03:06:16.438Z,0.48
2023-05-13T03:07:16.496Z,0.60
2023-05-13T03:08:16.580Z,0.94
2023-05-13T03:09:16.593Z,0.63
2023-05-13T03:10:16.655Z,0.77
2023-05-13T03:11:16.793Z,0.70
2023-05-13T03:12:16.813Z,0.66
2023-05-13T03:13:16.866Z,0.80
2023-05-13T03:14:16.928Z,0.72
2023-05-13T03:15:16.985Z,0.69
2023-05-13T03:16:17.105Z,0.56
2023-05-13T03:17:17.075Z,0.68
2023-05-13T03:18:17.107Z,0.58
2023-05-13T03:19:17.187Z,0.53
2023-05-13T03:20:17.194Z,0.50
2023-05-13T03:21:17.257Z,0.50
2023-05-13T03:22:17.307Z,0.55
2023-05-13T03:23:17.381Z,0.83
2023-05-13T03:24:17.415Z,0.59
2023-05-13T03:25:17.464Z,0.91
2023-05-13T03:26:17.489Z,0.59
2023-05-13T03:27:17.535Z,0.53
2023-05-13T03:28:17.621Z,0.67
2023-05-13T03:29:17.671Z,0.54
2023-05-13T03:30:17.747Z,0.59
2023-05-13T03:31:17.792Z,0.71
2023-05-13T03:32:17.818Z,0.65
2023-05-13T03:33:17.873Z,0.43
2023-05-13T03:34:17.911Z,0.45
2023-05-13T03:35:17.950Z,0.64
2023-05-13T03:36:18.013Z,0.62
2023-05-13T03:37:18.069Z,0.79
2023-05-13T03:38:18.118Z,0.74
2023-05-13T03:39:18.185Z,0.51
2023-05-13T03:40:18.215Z,0.78
2023-05-13T03:41:18.278Z,0.54
2023-05-13T03:42:18.301Z,0.72
2023-05-13T03:43:18.348Z,0.42
2023-05-13T03:44:18.398Z,0.56
2023-05-13T03:45:18.464Z,0.66
2023-05-13T03:46:18.564Z,0.67
2023-05-13T03:47:18.585Z,0.54
2023-05-13T03:48:18.682Z,0.56
2023-05-13T03:49:18.713Z,0.63
2023-05-13T03:50:18.849Z,0.78
2023-05-13T03:51:18.804Z,0.49
2023-05-13T03:52:18.852Z,0.65
2023-05-13T03:53:18.929Z,0.50
2023-05-13T03:54:19.013Z,0.55
2023-05-13T03:55:19.072Z,0.50
2023-05-13T03:56:19.044Z,0.84
2023-05-13T03:57:19.085Z,0.64
2023-05-13T03:58:19.158Z,0.74
2023-05-13T03:59:19.161Z,0.49
2023-05-13T04:00:19.344Z,0.49
2023-05-13T04:01:19.237Z,0.60
2023-05-13T04:02:19.340Z,0.38
2023-05-13T04:03:19.366Z,0.44
2023-05-13T04:04:19.352Z,0.61
2023-05-13T04:05:19.490Z,0.47
2023-05-13T04:06:19.445Z,0.50
2023-05-13T04:07:19.496Z,0.46
2023-05-13T04:08:19.533Z,0.47
2023-05-13T04:09:19.571Z,0.58
2023-05-13T04:10:19.801Z,0.58
2023-05-13T04:11:19.691Z,0.44
2023-05-13T04:12:19.752Z,0.78
2023-05-13T04:13:19.812Z,0.50
2023-05-13T04:14:19.864Z,0.71
2023-05-13T04:15:19.913Z,0.91
2023-05-13T04:16:19.990Z,0.55
2023-05-13T04:17:20.040Z,0.43
2023-05-13T04:18:20.046Z,0.61
2023-05-13T04:19:20.092Z,0.36
2023-05-13T04:20:20.329Z,0.93
2023-05-13T04:21:20.159Z,0.97
2023-05-13T04:22:20.203Z,0.68
2023-05-13T04:23:20.253Z,0.71
2023-05-13T04:24:20.314Z,0.80
2023-05-13T04:25:20.347Z,0.56
2023-05-13T04:26:20.395Z,0.60
2023-05-13T04:27:20.446Z,1.05
2023-05-13T04:28:20.501Z,0.84
2023-05-13T04:29:20.538Z,0.78
2023-05-13T04:30:20.767Z,1.13
2023-05-13T04:31:20.672Z,1.33
2023-05-13T04:32:20.726Z,1.46
2023-05-13T04:33:20.765Z,1.62
2023-05-13T04:34:20.811Z,1.81
2023-05-13T04:35:20.984Z,2.07
2023-05-13T04:36:20.911Z,2.55
2023-05-13T04:37:20.928Z,2.18
2023-05-13T04:38:20.973Z,2.21
2023-05-13T04:39:21.043Z,2.27
2023-05-13T04:40:21.301Z,3.24
2023-05-13T04:41:21.107Z,1.84
2023-05-13T04:42:21.173Z,2.30
2023-05-13T04:43:21.226Z,2.42
2023-05-13T04:44:21.278Z,2.62
2023-05-13T04:45:21.308Z,2.29
2023-05-13T04:46:21.388Z,2.08
2023-05-13T04:47:21.451Z,1.96
2023-05-13T04:48:21.496Z,1.64
2023-05-13T04:49:21.557Z,1.85
2023-05-13T04:50:21.804Z,1.87
2023-05-13T04:51:21.646Z,1.80
2023-05-13T04:52:21.713Z,1.77
2023-05-13T04:53:21.772Z,1.69
2023-05-13T04:54:21.826Z,1.56
2023-05-13T04:55:22.742Z,1.71
2023-05-13T04:56:21.885Z,1.94
2023-05-13T04:57:21.952Z,1.95
2023-05-13T04:58:22.006Z,1.68
2023-05-13T04:59:22.073Z,1.63
2023-05-13T05:00:22.407Z,1.94
2023-05-13T05:01:22.232Z,1.87
2023-05-13T05:02:22.330Z,2.30
2023-05-13T05:03:22.349Z,1.51
2023-05-13T05:04:22.446Z,1.93
2023-05-13T05:05:22.429Z,1.97
2023-05-13T05:06:22.471Z,1.86
2023-05-13T05:07:22.529Z,1.45
2023-05-13T05:08:22.619Z,1.80
2023-05-13T05:09:22.620Z,1.68
2023-05-13T05:10:22.834Z,1.46
2023-05-13T05:11:22.754Z,1.67
2023-05-13T05:12:22.825Z,1.77
2023-05-13T05:13:22.888Z,1.74
2023-05-13T05:14:22.979Z,1.74
2023-05-13T05:15:23.036Z,1.90
2023-05-13T05:16:23.059Z,1.51
2023-05-13T05:17:23.230Z,1.32
2023-05-13T05:18:23.319Z,1.40
2023-05-13T05:19:23.344Z,1.63
2023-05-13T05:20:23.560Z,1.68
2023-05-13T05:21:23.376Z,1.24
2023-05-13T05:22:23.419Z,1.53
2023-05-13T05:23:23.473Z,1.65
2023-05-13T05:24:23.547Z,1.61
2023-05-13T05:25:23.601Z,1.19
2023-05-13T05:26:23.663Z,1.28
2023-05-13T05:27:23.708Z,1.34
2023-05-13T05:28:23.760Z,1.19
2023-05-13T05:29:23.824Z,1.39
2023-05-13T05:30:24.272Z,1.63
2023-05-13T05:31:23.948Z,1.27
2023-05-13T05:32:23.994Z,1.13
2023-05-13T05:33:24.069Z,1.22
2023-05-13T05:34:24.124Z,1.13
2023-05-13T05:35:24.134Z,1.06
2023-05-13T05:36:24.193Z,1.05
2023-05-13T05:37:24.253Z,1.13
2023-05-13T05:38:24.325Z,1.38
2023-05-13T05:39:24.379Z,1.30
2023-05-13T05:40:24.449Z,1.30
2023-05-13T05:41:24.502Z,1.12
2023-05-13T05:42:24.564Z,1.08
2023-05-13T05:43:24.630Z,1.29
2023-05-13T05:44:24.669Z,1.21
2023-05-13T05:45:24.752Z,1.30
2023-05-13T05:46:24.943Z,1.07
2023-05-13T05:47:24.899Z,1.00
2023-05-13T05:48:24.926Z,0.83
2023-05-13T05:49:24.983Z,1.06
2023-05-13T05:50:25.041Z,1.12
2023-05-13T05:51:25.121Z,0.94
2023-05-13T05:52:25.167Z,0.93
2023-05-13T05:53:25.229Z,0.96
2023-05-13T05:54:25.305Z,1.14
2023-05-13T05:55:25.343Z,0.93
2023-05-13T05:56:25.407Z,1.00
2023-05-13T05:57:25.447Z,1.20
2023-05-13T05:58:25.512Z,0.94
2023-05-13T05:59:25.547Z,1.04
2023-05-13T06:00:25.610Z,0.95
2023-05-13T06:01:25.644Z,1.17
2023-05-13T06:02:25.736Z,1.01
2023-05-13T06:03:25.925Z,0.78
2023-05-13T06:04:25.840Z,0.74
2023-05-13T06:05:25.876Z,0.98
2023-05-13T06:06:25.977Z,1.10
2023-05-13T06:07:25.989Z,1.00
2023-05-13T06:08:26.063Z,1.07
2023-05-13T06:09:26.108Z,1.07
2023-05-13T06:10:26.174Z,0.89
2023-05-13T06:11:26.245Z,1.10
2023-05-13T06:12:26.315Z,1.06
2023-05-13T06:13:26.453Z,1.03
2023-05-13T06:14:26.411Z,1.05
2023-05-13T06:15:26.461Z,1.13
2023-05-13T06:16:26.592Z,0.87
2023-05-13T06:17:26.576Z,0.99
2023-05-13T06:18:26.854Z,1.25
2023-05-13T06:19:26.643Z,1.03
2023-05-13T06:20:49.047Z,1.39
2023-05-13T06:21:49.155Z,1.20
2023-05-13T06:22:49.230Z,0.83
2023-05-13T06:23:49.337Z,1.18
2023-05-13T06:24:49.458Z,0.93
2023-05-13T06:25:49.571Z,0.96
2023-05-13T06:26:49.611Z,0.93
2023-05-13T06:27:49.809Z,0.89
2023-05-13T06:28:49.848Z,0.95
2023-05-13T06:29:49.971Z,0.92
2023-05-13T06:30:50.240Z,0.93
2023-05-13T06:31:50.265Z,1.09
2023-05-13T06:33:00.798Z,0.96
2023-05-13T06:33:51.422Z,0.85
2023-05-13T06:34:50.374Z,0.79
2023-05-13T06:35:50.373Z,0.99
2023-05-13T06:36:50.348Z,1.15
2023-05-13T06:37:50.359Z,0.72
2023-05-13T06:38:50.373Z,1.05
2023-05-13T06:39:50.332Z,0.95
2023-05-13T06:40:50.337Z,0.94
2023-05-13T06:41:50.330Z,0.69
2023-05-13T06:42:50.324Z,0.75
2023-05-13T06:43:50.321Z,0.62
2023-05-13T06:44:50.316Z,0.90
2023-05-13T06:45:50.337Z,0.78
2023-05-13T06:46:50.394Z,0.88
2023-05-13T06:47:50.445Z,0.68
2023-05-13T06:48:50.435Z,0.62
2023-05-13T06:49:50.474Z,0.81
2023-05-13T06:50:50.486Z,0.84
2023-05-13T06:51:50.532Z,0.71
2023-05-13T06:52:50.575Z,0.75
2023-05-13T06:53:50.582Z,0.92
2023-05-13T06:54:50.655Z,0.85
2023-05-13T06:55:50.695Z,0.70
2023-05-13T06:56:50.729Z,0.73
2023-05-13T06:57:50.757Z,0.97
2023-05-13T06:58:50.797Z,0.80
2023-05-13T06:59:50.852Z,1.03
2023-05-13T07:00:50.927Z,0.59
2023-05-13T07:01:50.959Z,0.92
2023-05-13T07:02:51.065Z,0.64
2023-05-13T07:03:51.089Z,0.61
2023-05-13T07:04:51.078Z,0.64
2023-05-13T07:05:51.104Z,0.78
2023-05-13T07:06:51.146Z,0.67
2023-05-13T07:07:51.179Z,0.82
2023-05-13T07:08:51.207Z,0.51
2023-05-13T07:09:51.250Z,0.87
2023-05-13T07:10:51.309Z,0.85
2023-05-13T07:11:51.337Z,0.64
2023-05-13T07:12:51.383Z,0.70
2023-05-13T07:13:51.401Z,0.57
2023-05-13T07:14:51.436Z,0.66
2023-05-13T07:15:51.472Z,0.74
2023-05-13T07:16:51.543Z,0.80
2023-05-13T07:17:51.685Z,0.83
2023-05-13T07:18:51.641Z,0.88
2023-05-13T07:19:51.622Z,0.77
2023-05-13T07:20:51.669Z,0.76
2023-05-13T07:21:51.684Z,0.62
2023-05-13T07:22:51.712Z,0.59
2023-05-13T07:23:51.763Z,0.93
2023-05-13T07:24:51.800Z,0.67
2023-05-13T07:25:51.804Z,0.83
2023-05-13T07:26:51.874Z,0.83
2023-05-13T07:27:51.880Z,0.56
2023-05-13T07:28:51.892Z,0.87
2023-05-13T07:29:51.947Z,0.65
2023-05-13T07:30:52.006Z,1.02
2023-05-13T07:31:52.013Z,0.81
2023-05-13T07:32:53.863Z,0.98
2023-05-13T07:33:52.089Z,0.67
2023-05-13T07:34:52.098Z,0.96
2023-05-13T07:35:52.147Z,0.77
2023-05-13T07:36:52.184Z,0.86
2023-05-13T07:37:52.231Z,0.55
2023-05-13T07:38:52.236Z,0.65
2023-05-13T07:39:52.290Z,0.70
2023-05-13T07:40:52.290Z,0.75
2023-05-13T07:41:52.343Z,0.81
2023-05-13T07:42:52.379Z,0.53
2023-05-13T07:43:52.394Z,0.66
2023-05-13T07:44:52.453Z,0.67
2023-05-13T07:45:52.479Z,0.78
2023-05-13T07:46:52.515Z,0.78
2023-05-13T07:47:52.594Z,0.56
2023-05-13T07:48:52.594Z,0.69
2023-05-13T07:49:52.605Z,0.60
2023-05-13T07:50:52.655Z,0.51
2023-05-13T07:51:52.672Z,0.73
2023-05-13T07:52:52.695Z,0.78
2023-05-13T07:53:52.705Z,0.69
2023-05-13T07:54:52.735Z,0.78
2023-05-13T07:55:52.748Z,0.61
2023-05-13T07:56:52.841Z,0.67
2023-05-13T07:57:52.829Z,0.66
2023-05-13T07:58:52.852Z,0.76
2023-05-13T07:59:52.890Z,0.80
2023-05-13T08:00:52.920Z,0.74
2023-05-13T08:01:52.938Z,0.77
2023-05-13T08:02:53.044Z,0.62
2023-05-13T08:03:53.153Z,0.67
2023-05-13T08:04:53.092Z,0.73
2023-05-13T08:05:53.060Z,0.65
2023-05-13T08:06:53.087Z,0.62
2023-05-13T08:07:53.092Z,0.73
2023-05-13T08:08:53.113Z,0.70
2023-05-13T08:09:53.124Z,0.68
2023-05-13T08:10:53.141Z,0.76
2023-05-13T08:11:53.197Z,0.60
2023-05-13T08:12:53.195Z,0.76
2023-05-13T08:13:53.284Z,0.86
2023-05-13T08:14:53.253Z,0.63
2023-05-13T08:15:53.247Z,0.68
2023-05-13T08:16:53.391Z,0.89
2023-05-13T08:17:53.333Z,0.72
2023-05-13T08:18:53.337Z,0.49
2023-05-13T08:19:53.371Z,0.62
2023-05-13T08:20:53.363Z,0.87
2023-05-13T08:21:53.401Z,0.57
2023-05-13T08:22:53.418Z,0.67
2023-05-13T08:23:53.420Z,0.55
2023-05-13T08:24:53.462Z,0.51
2023-05-13T08:25:53.483Z,0.79
2023-05-13T08:26:53.496Z,0.53
2023-05-13T08:27:53.534Z,0.69
2023-05-13T08:28:55.077Z,0.58
2023-05-13T08:29:53.602Z,0.65
2023-05-13T08:30:53.596Z,0.60
2023-05-13T08:31:53.758Z,0.68
2023-05-13T08:32:53.668Z,0.83
2023-05-13T08:33:53.673Z,0.87
2023-05-13T08:34:53.698Z,0.70
2023-05-13T08:35:53.685Z,0.48
2023-05-13T08:36:53.733Z,0.65
2023-05-13T08:37:53.737Z,0.57
2023-05-13T08:38:53.779Z,0.58
2023-05-13T08:39:53.789Z,0.88
2023-05-13T08:40:53.819Z,0.73
2023-05-13T08:41:53.834Z,0.61
2023-05-13T08:42:53.876Z,0.61
2023-05-13T08:43:53.899Z,0.47
2023-05-13T08:44:53.915Z,0.53
2023-05-13T08:45:53.958Z,0.54
2023-05-13T08:46:53.937Z,0.62
2023-05-13T08:47:54.024Z,0.49
2023-05-13T08:48:53.982Z,0.40
2023-05-13T08:49:54.024Z,0.66
2023-05-13T08:50:54.055Z,0.70
2023-05-13T08:51:54.129Z,0.48
2023-05-13T08:52:54.186Z,0.58
2023-05-13T08:53:54.166Z,0.84
2023-05-13T08:54:54.165Z,0.56
2023-05-13T08:55:54.184Z,0.82
2023-05-13T08:56:54.178Z,0.56
2023-05-13T08:57:54.188Z,0.66
2023-05-13T08:58:54.196Z,0.47
2023-05-13T08:59:54.256Z,0.52
2023-05-13T09:00:54.249Z,0.60
2023-05-13T09:01:54.260Z,0.54
2023-05-13T09:02:54.273Z,0.63
2023-05-13T09:03:54.244Z,0.46
2023-05-13T09:04:54.256Z,0.61
2023-05-13T09:05:54.236Z,0.68
2023-05-13T09:06:54.259Z,0.71
2023-05-13T09:07:54.264Z,0.99
2023-05-13T09:08:54.323Z,0.45
2023-05-13T09:09:54.510Z,0.84
2023-05-13T09:10:54.585Z,0.58
2023-05-13T09:11:54.729Z,0.66
2023-05-13T09:12:54.831Z,0.57
2023-05-13T09:13:54.937Z,0.58
2023-05-13T09:14:55.077Z,0.60
2023-05-13T09:15:55.241Z,0.51
2023-05-13T09:16:55.312Z,0.56
2023-05-13T09:17:55.504Z,0.63
2023-05-13T09:18:55.680Z,0.70
2023-05-13T09:19:55.666Z,0.66
2023-05-13T09:20:55.880Z,0.88
2023-05-13T09:21:55.921Z,0.70
2023-05-13T09:22:56.140Z,0.49
2023-05-13T09:23:56.264Z,0.84
2023-05-13T09:24:56.424Z,0.71
2023-05-13T09:25:56.562Z,0.52
2023-05-13T09:26:56.693Z,0.69
2023-05-13T09:27:56.805Z,0.61
2023-05-13T09:28:56.976Z,0.82
2023-05-13T09:29:57.111Z,0.67
2023-05-13T09:30:57.326Z,0.83
2023-05-13T09:31:57.353Z,0.45
2023-05-13T09:32:57.564Z,0.67
2023-05-13T09:33:57.626Z,0.70
2023-05-13T09:34:57.763Z,0.41
2023-05-13T09:35:57.868Z,0.48
2023-05-13T09:36:58.013Z,0.72
2023-05-13T09:37:58.054Z,0.51
2023-05-13T09:38:58.138Z,0.61
2023-05-13T09:39:58.265Z,0.56
2023-05-13T09:40:58.391Z,0.56
2023-05-13T09:41:58.493Z,0.70
2023-05-13T09:42:58.642Z,0.67
2023-05-13T09:43:58.741Z,0.97
2023-05-13T09:44:58.867Z,0.54
2023-05-13T09:45:59.076Z,0.47
2023-05-13T09:46:59.146Z,0.81
2023-05-13T09:47:59.209Z,0.61
2023-05-13T09:48:59.358Z,0.71
2023-05-13T09:49:59.417Z,0.63
2023-05-13T09:50:59.402Z,0.52
2023-05-13T09:51:59.363Z,0.67
2023-05-13T09:52:59.372Z,0.78
2023-05-13T09:53:59.359Z,0.63
2023-05-13T09:54:59.393Z,0.40
2023-05-13T09:55:59.354Z,0.72
2023-05-13T09:56:59.380Z,0.53
2023-05-13T09:57:59.393Z,0.54
2023-05-13T09:58:59.405Z,0.35
2023-05-13T09:59:59.395Z,0.60
2023-05-13T10:00:59.413Z,0.70
2023-05-13T10:01:59.392Z,0.59
2023-05-13T10:02:59.467Z,0.58
2023-05-13T10:03:59.476Z,0.51
2023-05-13T10:04:59.430Z,0.68
2023-05-13T10:06:01.310Z,0.58
2023-05-13T10:06:59.449Z,0.63
2023-05-13T10:07:59.438Z,0.35
2023-05-13T10:08:59.426Z,0.35
2023-05-13T10:09:59.424Z,0.57
2023-05-13T10:10:59.398Z,0.43
2023-05-13T10:11:59.388Z,0.39
2023-05-13T10:12:59.403Z,0.77
2023-05-13T10:13:59.389Z,0.47
2023-05-13T10:14:59.392Z,0.54
2023-05-13T10:15:59.385Z,0.34
2023-05-13T10:16:59.459Z,0.47
2023-05-13T10:17:59.393Z,0.52
2023-05-13T10:18:59.387Z,0.48
2023-05-13T10:19:59.406Z,0.39
2023-05-13T10:20:59.374Z,0.47
2023-05-13T10:21:59.362Z,0.46
2023-05-13T10:22:59.416Z,0.33
2023-05-13T10:23:59.364Z,0.51
2023-05-13T10:24:59.325Z,0.66
2023-05-13T10:25:59.346Z,0.35
2023-05-13T10:26:59.336Z,0.26
2023-05-13T10:27:59.334Z,0.37
2023-05-13T10:28:59.350Z,0.47
2023-05-13T10:30:01.134Z,0.42
2023-05-13T10:30:59.308Z,0.52
2023-05-13T10:31:59.303Z,0.25
2023-05-13T10:32:59.314Z,0.70
2023-05-13T10:33:59.270Z,0.49
2023-05-13T10:34:59.286Z,0.33
2023-05-13T10:35:59.359Z,0.35
2023-05-13T10:36:59.243Z,0.50
2023-05-13T10:37:59.221Z,0.51
2023-05-13T10:38:59.242Z,0.75
2023-05-13T10:39:59.236Z,0.34
2023-05-13T10:40:59.208Z,0.44
2023-05-13T10:41:59.207Z,0.52
2023-05-13T10:42:59.214Z,0.61
2023-05-13T10:43:59.194Z,0.39
2023-05-13T10:44:59.202Z,0.39
2023-05-13T10:45:59.358Z,0.28
2023-05-13T10:46:59.180Z,0.36
2023-05-13T10:47:59.256Z,0.44
2023-05-13T10:48:59.198Z,0.41
2023-05-13T10:49:59.162Z,0.48
2023-05-13T10:50:59.147Z,0.35
2023-05-13T10:51:59.157Z,0.37
2023-05-13T10:52:59.150Z,0.49
2023-05-13T10:53:59.207Z,0.42
2023-05-13T10:54:59.158Z,0.41
2023-05-13T10:55:59.135Z,0.25
2023-05-13T10:56:59.224Z,0.35
2023-05-13T10:58:00.168Z,0.51
2023-05-13T10:58:59.086Z,0.26
2023-05-13T10:59:59.076Z,0.35
2023-05-13T11:00:59.088Z,0.45
2023-05-13T11:01:59.159Z,0.46
2023-05-13T11:02:59.245Z,0.27
2023-05-13T11:03:59.344Z,0.40
2023-05-13T11:04:59.221Z,0.32
2023-05-13T11:05:59.292Z,0.43
2023-05-13T11:06:59.283Z,0.35
2023-05-13T11:07:59.360Z,0.31
2023-05-13T11:08:59.416Z,0.41
2023-05-13T11:09:59.430Z,0.22
2023-05-13T11:10:59.490Z,0.38
2023-05-13T11:11:59.525Z,0.35
2023-05-13T11:12:59.572Z,0.29
2023-05-13T11:13:59.632Z,0.49
2023-05-13T11:14:59.665Z,0.39
2023-05-13T11:15:59.775Z,0.27
2023-05-13T11:16:59.787Z,0.32
2023-05-13T11:17:59.849Z,0.25
2023-05-13T11:18:59.889Z,0.36
2023-05-13T11:19:59.923Z,0.40
2023-05-13T11:20:59.970Z,0.34
2023-05-13T11:22:00.008Z,0.27
2023-05-13T11:23:00.035Z,0.31
2023-05-13T11:24:00.101Z,0.32
2023-05-13T11:25:00.168Z,0.25
2023-05-13T11:26:00.169Z,0.29
2023-05-13T11:27:00.229Z,0.27
2023-05-13T11:28:00.247Z,0.26
2023-05-13T11:29:00.285Z,0.21
2023-05-13T11:30:00.329Z,0.27
2023-05-13T11:31:00.381Z,0.29
2023-05-13T11:32:00.957Z,0.34
2023-05-13T11:33:00.500Z,0.23
2023-05-13T11:34:00.523Z,0.32
2023-05-13T11:35:00.579Z,0.19
2023-05-13T11:36:00.596Z,0.31
2023-05-13T11:37:00.651Z,0.36
2023-05-13T11:38:00.725Z,0.31
2023-05-13T11:39:00.694Z,0.29
2023-05-13T11:40:00.743Z,0.33
2023-05-13T11:41:00.785Z,0.31
2023-05-13T11:42:00.820Z,0.19
2023-05-13T11:43:00.840Z,0.17
2023-05-13T11:44:00.882Z,0.31
2023-05-13T11:45:00.903Z,0.32
2023-05-13T11:46:01.016Z,0.25
2023-05-13T11:47:00.964Z,0.27
2023-05-13T11:48:01.038Z,0.33
2023-05-13T11:49:01.020Z,0.26
2023-05-13T11:50:01.040Z,0.24
2023-05-13T11:51:01.102Z,0.21
2023-05-13T11:52:01.125Z,0.20
2023-05-13T11:53:01.148Z,0.14
2023-05-13T11:54:01.185Z,0.18
2023-05-13T11:55:01.215Z,0.13
2023-05-13T11:56:01.247Z,0.15
2023-05-13T11:57:01.250Z,0.25
2023-05-13T11:58:01.304Z,0.32
2023-05-13T11:59:01.303Z,0.21
2023-05-13T12:00:01.377Z,0.21
2023-05-13T12:01:01.401Z,0.27
2023-05-13T12:02:01.456Z,0.19
2023-05-13T12:03:01.538Z,0.18
2023-05-13T12:04:01.474Z,0.28
2023-05-13T12:05:01.686Z,0.17
2023-05-13T12:06:01.567Z,0.24
2023-05-13T12:07:01.579Z,0.19
2023-05-13T12:08:01.628Z,0.18
2023-05-13T12:09:01.743Z,0.22
2023-05-13T12:10:01.697Z,0.25
2023-05-13T12:11:01.723Z,0.10
2023-05-13T12:12:01.751Z,0.28
2023-05-13T12:13:01.771Z,0.22
2023-05-13T12:14:01.795Z,0.25
2023-05-13T12:15:01.800Z,0.13
2023-05-13T12:16:01.899Z,0.17
2023-05-13T12:17:01.906Z,0.14
2023-05-13T12:18:01.925Z,0.09
2023-05-13T12:19:02.049Z,0.19
2023-05-13T12:20:02.027Z,0.15
2023-05-13T12:21:02.042Z,0.15
2023-05-13T12:22:02.983Z,0.15
2023-05-13T12:23:02.314Z,0.28
2023-05-13T12:24:02.340Z,0.14
2023-05-13T12:25:02.365Z,0.17
2023-05-13T12:26:02.377Z,0.26
2023-05-13T12:27:02.387Z,0.11
2023-05-13T12:28:02.400Z,0.17
2023-05-13T12:29:02.415Z,0.26
2023-05-13T12:30:02.493Z,0.16
2023-05-13T12:31:02.512Z,0.36
2023-05-13T12:32:02.486Z,0.26
2023-05-13T12:33:02.549Z,0.11
2023-05-13T12:34:02.529Z,0.08
2023-05-13T12:35:02.541Z,0.21
2023-05-13T12:36:02.557Z,0.13
2023-05-13T12:37:02.629Z,0.17
2023-05-13T12:38:02.583Z,0.32
2023-05-13T12:39:02.621Z,0.09
2023-05-13T12:40:02.635Z,0.13
2023-05-13T12:41:02.659Z,0.11
2023-05-13T12:42:02.670Z,0.09
2023-05-13T12:43:02.672Z,0.16
2023-05-13T12:44:02.696Z,0.08
2023-05-13T12:45:02.705Z,0.08
2023-05-13T12:46:02.722Z,0.20
2023-05-13T12:47:02.794Z,0.04
2023-05-13T12:48:02.742Z,0.06
2023-05-13T12:49:02.745Z,0.23
2023-05-13T12:50:02.736Z,0.11
2023-05-13T12:51:02.759Z,0.11
2023-05-13T12:52:02.784Z,0.09
2023-05-13T12:53:02.772Z,0.21
2023-05-13T12:54:02.779Z,0.11
2023-05-13T12:55:02.798Z,0.16
2023-05-13T12:56:02.799Z,0.17
2023-05-13T12:57:02.806Z,0.14
2023-05-13T12:58:02.837Z,0.12
2023-05-13T12:59:02.851Z,0.08
2023-05-13T13:00:02.855Z,0.08
2023-05-13T13:01:02.950Z,0.23
2023-05-13T13:02:02.992Z,0.12
2023-05-13T13:03:02.943Z,0.25
2023-05-13T13:04:02.975Z,0.10
2023-05-13T13:05:02.888Z,0.19
2023-05-13T13:06:02.910Z,0.09
2023-05-13T13:07:02.955Z,0.13
2023-05-13T13:08:02.952Z,0.16
2023-05-13T13:09:02.979Z,0.13
2023-05-13T13:10:02.987Z,0.20
2023-05-13T13:11:03.000Z,0.09
2023-05-13T13:12:03.030Z,0.06
2023-05-13T13:13:03.053Z,0.16
2023-05-13T13:14:03.047Z,0.28
2023-05-13T13:15:03.041Z,0.22
2023-05-13T13:16:03.074Z,0.26
2023-05-13T13:17:03.066Z,0.23
2023-05-13T13:18:03.119Z,0.19
2023-05-13T13:19:03.129Z,0.14